createdAt,value
2022-11-29T00:01:20.299Z,98.56
2022-11-29T00:03:47.952Z,98.61
2022-11-29T00:06:17.676Z,99.14
2022-11-29T00:08:45.400Z,98.52
2022-11-29T00:11:40.897Z,98.49
2022-11-29T00:14:10.318Z,98.98
2022-11-29T00:16:37.362Z,99.15
2022-11-29T00:19:04.837Z,98.00
2022-11-29T00:21:36.326Z,98.17
2022-11-29T00:24:03.651Z,98.61
2022-11-29T00:26:31.162Z,98.73
2022-11-29T00:29:05.895Z,98.45
2022-11-29T00:31:35.590Z,98.15
2022-11-29T00:34:07.036Z,98.33
2022-11-29T00:36:35.371Z,98.25
2022-11-29T00:39:03.872Z,98.13
2022-11-29T00:41:31.140Z,98.51
2022-11-29T00:43:58.639Z,98.65
2022-11-29T00:46:26.000Z,98.70
2022-11-29T00:49:01.349Z,98.81
2022-11-29T00:51:31.018Z,98.42
2022-11-29T00:53:57.912Z,98.74
2022-11-29T00:56:24.896Z,98.96
2022-11-29T00:58:52.027Z,98.55
2022-11-29T01:01:28.069Z,98.55
2022-11-29T01:03:55.221Z,98.46
2022-11-29T01:06:25.822Z,98.35
2022-11-29T01:08:55.623Z,98.57
2022-11-29T01:11:42.901Z,98.88
2022-11-29T01:14:12.117Z,98.53
2022-11-29T01:16:42.735Z,99.09
2022-11-29T01:19:09.822Z,99.01
2022-11-29T01:21:38.045Z,98.44
2022-11-29T01:24:05.378Z,98.84
2022-11-29T01:26:32.795Z,98.43
2022-11-29T01:29:00.884Z,98.42
2022-11-29T01:31:39.278Z,98.83
2022-11-29T01:34:07.952Z,98.76
2022-11-29T01:36:55.599Z,98.86
2022-11-29T01:39:23.253Z,98.27
2022-11-29T01:44:42.056Z,98.55
2022-11-29T01:47:11.780Z,98.57
2022-11-29T01:49:53.051Z,99.11
2022-11-29T01:52:43.139Z,99.04
2022-11-29T01:55:10.996Z,98.19
2022-11-29T01:57:41.817Z,98.83
2022-11-29T02:00:15.894Z,98.56
2022-11-29T02:02:46.228Z,98.91
2022-11-29T02:05:22.950Z,98.58
2022-11-29T02:07:53.428Z,98.40
2022-11-29T02:10:25.275Z,98.83
2022-11-29T02:13:11.942Z,98.65
2022-11-29T02:16:03.493Z,98.96
2022-11-29T02:18:33.186Z,98.95
2022-11-29T02:21:11.435Z,98.37
2022-11-29T02:24:01.875Z,99.05
2022-11-29T02:29:08.646Z,99.09
2022-11-29T02:32:12.882Z,99.17
2022-11-29T02:34:58.175Z,98.72
2022-11-29T02:37:53.257Z,99.29
2022-11-29T02:40:39.682Z,99.32
2022-11-29T02:43:27.772Z,98.74
2022-11-29T02:45:57.153Z,99.34
2022-11-29T02:49:03.123Z,98.38
2022-11-29T02:51:52.470Z,98.94
2022-11-29T02:54:57.264Z,98.38
2022-11-29T02:57:40.057Z,98.44
2022-11-29T03:00:09.919Z,99.03
2022-11-29T03:02:50.091Z,98.66
2022-11-29T03:05:47.293Z,99.41
2022-11-29T03:08:35.717Z,98.45
2022-11-29T03:11:02.416Z,99.27
2022-11-29T03:14:14.621Z,98.53
2022-11-29T03:17:15.314Z,99.44
2022-11-29T03:20:06.257Z,99.39
2022-11-29T03:22:47.227Z,99.08
2022-11-29T03:25:33.113Z,98.51
2022-11-29T03:28:07.285Z,99.21
2022-11-29T03:30:38.540Z,99.11
2022-11-29T03:33:13.323Z,98.53
2022-11-29T03:35:46.262Z,98.83
2022-11-29T03:38:46.476Z,99.37
2022-11-29T03:41:24.818Z,99.09
2022-11-29T03:44:12.532Z,98.78
2022-11-29T03:47:08.411Z,98.64
2022-11-29T03:49:45.819Z,99.35
2022-11-29T03:52:13.795Z,99.61
2022-11-29T03:54:59.820Z,98.61
2022-11-29T03:57:34.580Z,99.49
2022-11-29T04:00:11.424Z,99.00
2022-11-29T04:02:44.337Z,98.83
2022-11-29T04:05:48.102Z,98.67
2022-11-29T04:08:50.892Z,98.83
2022-11-29T04:11:35.308Z,98.66
2022-11-29T04:14:20.102Z,99.21
2022-11-29T04:20:01.988Z,99.02
2022-11-29T04:22:42.181Z,99.36
2022-11-29T04:25:21.817Z,99.25
2022-11-29T04:28:19.485Z,98.71
2022-11-29T04:31:18.117Z,98.92
2022-11-29T04:34:01.563Z,99.46
2022-11-29T04:36:56.905Z,98.38
2022-11-29T04:39:48.462Z,98.62
2022-11-29T04:42:57.489Z,99.10
2022-11-29T04:45:58.205Z,99.10
2022-11-29T04:48:44.822Z,98.75
2022-11-29T04:51:27.132Z,98.55
2022-11-29T04:54:33.084Z,99.14
2022-11-29T04:57:35.571Z,99.15
2022-11-29T05:00:14.183Z,98.87
2022-11-29T05:03:02.661Z,99.14
2022-11-29T05:05:42.062Z,99.31
2022-11-29T05:08:23.942Z,98.63
2022-11-29T05:11:16.382Z,99.70
2022-11-29T05:13:43.323Z,98.95
2022-11-29T05:16:16.320Z,99.45
2022-11-29T05:18:48.603Z,99.12
2022-11-29T05:21:43.611Z,99.36
2022-11-29T05:24:11.875Z,98.81
2022-11-29T05:27:10.876Z,99.44
2022-11-29T05:29:47.973Z,98.67
2022-11-29T05:32:42.159Z,98.68
2022-11-29T05:35:27.849Z,99.29
2022-11-29T05:38:12.540Z,99.35
2022-11-29T05:40:51.270Z,98.73
2022-11-29T05:43:36.592Z,99.02
2022-11-29T05:46:20.478Z,98.92
2022-11-29T05:49:03.777Z,99.16
2022-11-29T05:51:53.595Z,98.63
2022-11-29T05:54:26.731Z,99.09
2022-11-29T05:57:32.137Z,99.41
2022-11-29T06:00:02.094Z,99.37
2022-11-29T06:02:47.054Z,99.72
2022-11-29T06:05:34.483Z,99.03
2022-11-29T06:08:18.558Z,98.74
2022-11-29T06:11:12.499Z,98.75
2022-11-29T06:14:05.738Z,99.62
2022-11-29T06:16:40.165Z,99.14
2022-11-29T06:19:55.150Z,99.23
2022-11-29T06:23:06.648Z,98.97
2022-11-29T06:26:05.535Z,99.01
2022-11-29T06:28:52.691Z,99.70
2022-11-29T06:31:23.884Z,99.14
2022-11-29T06:34:03.044Z,99.10
2022-11-29T06:36:50.541Z,98.94
2022-11-29T06:39:17.764Z,99.30
2022-11-29T06:41:44.549Z,99.03
2022-11-29T06:44:11.835Z,99.95
2022-11-29T06:46:49.771Z,99.10
2022-11-29T06:49:25.125Z,99.87
2022-11-29T06:52:10.351Z,99.48
2022-11-29T06:54:55.298Z,98.97
2022-11-29T06:57:34.461Z,99.26
2022-11-29T07:00:13.510Z,99.80
2022-11-29T07:03:11.916Z,99.60
2022-11-29T07:05:39.468Z,99.51
2022-11-29T07:08:12.148Z,99.84
2022-11-29T07:10:40.539Z,99.19
2022-11-29T07:13:07.596Z,99.98
2022-11-29T07:15:36.884Z,99.72
2022-11-29T07:18:18.680Z,99.11
2022-11-29T07:21:20.421Z,99.37
2022-11-29T07:24:05.206Z,99.63
2022-11-29T07:26:34.990Z,99.00
2022-11-29T07:29:40.042Z,100.00
2022-11-29T07:32:18.997Z,99.99
2022-11-29T07:34:51.693Z,99.99
2022-11-29T07:37:31.899Z,99.82
2022-11-29T07:40:04.876Z,99.63
2022-11-29T07:42:44.454Z,100.00
2022-11-29T07:45:27.799Z,99.91
2022-11-29T07:47:55.261Z,99.86
2022-11-29T07:52:51.671Z,99.65
2022-11-29T07:55:21.625Z,99.99
2022-11-29T07:57:48.967Z,99.85
2022-11-29T08:00:17.437Z,99.84
2022-11-29T08:03:05.404Z,99.37
2022-11-29T08:10:47.845Z,99.57
2022-11-29T08:13:14.697Z,99.64
2022-11-29T08:15:46.011Z,98.79
2022-11-29T08:24:13.128Z,99.15
2022-11-29T08:26:46.185Z,99.00
2022-11-29T08:29:17.786Z,99.27
2022-11-29T08:31:53.681Z,99.79
2022-11-29T08:34:44.667Z,98.75
2022-11-29T08:37:16.049Z,99.28
2022-11-29T08:40:05.643Z,99.37
2022-11-29T08:42:37.997Z,99.56
2022-11-29T08:45:12.410Z,98.68
2022-11-29T08:48:05.544Z,98.32
2022-11-29T08:50:35.273Z,98.49
2022-11-29T08:53:28.861Z,98.86
2022-11-29T08:57:38.478Z,98.59
2022-11-29T09:03:20.901Z,98.93
2022-11-29T09:09:15.498Z,98.72
2022-11-29T09:15:00.271Z,98.54
2022-11-29T09:17:38.819Z,97.91
2022-11-29T09:21:20.061Z,98.41
2022-11-29T09:24:12.507Z,98.21
2022-11-29T09:26:55.780Z,97.24
2022-11-29T09:29:54.255Z,98.40
2022-11-29T09:32:38.381Z,97.67
2022-11-29T09:35:21.665Z,97.57
2022-11-29T09:42:30.880Z,97.93
2022-11-29T09:48:36.524Z,97.87
2022-11-29T09:51:28.741Z,97.56
2022-11-29T09:55:11.858Z,97.21
2022-11-29T09:58:40.929Z,96.58
2022-11-29T10:01:14.510Z,97.26
2022-11-29T10:04:00.559Z,97.26
2022-11-29T10:07:33.886Z,96.64
2022-11-29T10:13:57.045Z,97.13
2022-11-29T10:17:08.743Z,97.30
2022-11-29T10:33:42.633Z,98.47
2022-11-29T10:36:33.410Z,97.53
2022-11-29T10:39:10.076Z,97.30
2022-11-29T10:41:40.983Z,97.57
2022-11-29T10:44:13.387Z,97.91
2022-11-29T11:06:09.878Z,96.89
2022-11-29T11:53:53.731Z,97.37
2022-11-29T11:56:21.930Z,97.58
2022-11-29T11:58:58.221Z,97.35
2022-11-29T12:01:37.556Z,97.92
2022-11-29T12:04:37.251Z,96.89
2022-11-29T12:08:05.723Z,97.55
2022-11-29T12:10:25.614Z,96.80
2022-11-29T12:12:55.307Z,97.21
2022-11-29T13:15:06.668Z,96.60
2022-11-29T13:18:19.569Z,96.74
2022-11-29T13:20:51.696Z,96.73
2022-11-29T13:23:46.307Z,96.14
2022-11-29T13:26:18.517Z,95.89
2022-11-29T13:28:46.652Z,96.51
2022-11-29T13:31:25.142Z,96.57
2022-11-29T13:34:14.378Z,96.57
2022-11-29T13:39:22.484Z,95.90
2022-11-29T13:44:43.238Z,95.64
2022-11-29T13:50:29.131Z,96.93
2022-11-29T13:53:07.965Z,96.26
2022-11-29T14:14:31.794Z,96.54
2022-11-29T14:17:02.551Z,96.36
2022-11-29T14:19:37.031Z,96.62
2022-11-29T14:22:06.428Z,97.31
2022-11-29T14:24:33.297Z,97.20
2022-11-29T14:27:05.942Z,96.52
2022-11-29T14:29:47.638Z,97.59
2022-11-29T14:32:46.203Z,96.70
2022-11-29T14:35:16.927Z,96.58
2022-11-29T14:38:11.892Z,97.52
2022-11-29T14:40:41.640Z,97.10
2022-11-29T14:54:12.926Z,97.36
2022-11-29T15:26:25.607Z,97.52
2022-11-29T15:29:35.767Z,98.31
2022-11-29T15:40:20.826Z,97.65
2022-11-29T16:12:12.813Z,98.29
2022-11-29T16:14:57.043Z,98.03
2022-11-29T16:17:31.938Z,98.19
2022-11-29T16:20:13.805Z,98.94
2022-11-29T16:22:40.759Z,97.96
2022-11-29T16:25:16.240Z,98.25
2022-11-29T16:27:43.397Z,99.01
2022-11-29T16:30:25.916Z,98.85
2022-11-29T16:33:00.855Z,98.74
2022-11-29T16:35:30.119Z,98.54
2022-11-29T16:40:34.891Z,98.94
2022-11-29T17:09:24.405Z,98.71
2022-11-29T17:11:51.059Z,98.33
2022-11-29T17:14:17.766Z,98.42
2022-11-29T17:16:44.824Z,97.89
2022-11-29T17:19:13.258Z,98.08
2022-11-29T17:21:40.173Z,98.63
2022-11-29T17:24:10.093Z,98.14
2022-11-29T17:26:36.740Z,97.83
2022-11-29T17:29:03.842Z,98.38
2022-11-29T17:31:31.543Z,98.24
2022-11-29T17:34:01.735Z,98.72
2022-11-29T17:36:29.073Z,98.57
2022-11-29T17:38:58.489Z,98.14
2022-11-29T17:41:26.493Z,99.00
2022-11-29T17:43:55.627Z,98.48
2022-11-29T17:46:26.412Z,98.87
2022-11-29T17:48:53.887Z,98.76
2022-11-29T17:51:50.753Z,98.45
2022-11-29T17:54:10.838Z,98.74
2022-11-29T17:56:37.509Z,98.50
2022-11-29T17:59:04.614Z,98.57
2022-11-29T18:01:33.342Z,98.33
2022-11-29T18:04:01.884Z,98.71
2022-11-29T18:06:31.146Z,97.80
2022-11-29T18:08:59.931Z,98.17
2022-11-29T18:49:18.190Z,98.58
2022-11-29T18:54:20.157Z,98.94
2022-11-29T19:07:29.514Z,97.75
2022-11-29T19:09:56.306Z,97.73
2022-11-29T19:12:23.495Z,97.41
2022-11-29T19:14:50.456Z,98.12
2022-11-29T19:17:18.090Z,98.39
2022-11-29T19:19:47.957Z,97.94
2022-11-29T19:22:14.812Z,98.36
2022-11-29T19:24:41.442Z,97.74
2022-11-29T19:27:08.201Z,97.64
2022-11-29T19:29:39.457Z,97.69
2022-11-29T19:32:08.552Z,96.64
2022-11-29T19:37:17.506Z,96.86
2022-11-29T19:55:48.025Z,96.45
2022-11-29T19:58:14.759Z,97.25
2022-11-29T20:00:41.685Z,96.27
2022-11-29T20:03:10.433Z,96.73
2022-11-29T20:08:21.929Z,97.15
2022-11-29T20:10:51.120Z,96.67
2022-11-29T20:13:21.202Z,97.25
2022-11-29T20:15:48.395Z,96.58
2022-11-29T20:18:15.850Z,96.55
2022-11-29T20:20:42.562Z,96.84
2022-11-29T20:23:09.706Z,96.40
2022-11-29T20:25:36.880Z,97.05
2022-11-29T20:28:04.288Z,96.67
2022-11-29T20:30:31.665Z,96.64
2022-11-29T20:32:58.451Z,96.89
2022-11-29T20:35:25.369Z,96.81
2022-11-29T20:38:14.180Z,96.35
2022-11-29T20:41:02.687Z,97.08
2022-11-29T20:43:43.128Z,96.54
2022-11-29T20:46:10.008Z,96.95
2022-11-29T20:48:36.904Z,96.44
2022-11-29T20:51:04.593Z,96.91
2022-11-29T20:53:39.615Z,96.07
2022-11-29T21:55:32.217Z,96.26
2022-11-29T21:57:59.280Z,95.39
2022-11-29T22:00:26.188Z,95.87
2022-11-29T22:02:53.393Z,96.00
2022-11-29T22:05:20.108Z,96.20
2022-11-29T22:07:46.762Z,95.25
2022-11-29T22:10:13.797Z,95.67
2022-11-29T22:12:49.381Z,95.29
2022-11-29T22:55:47.996Z,95.29
2022-11-29T22:58:14.665Z,94.94
2022-11-29T23:00:44.100Z,94.92
2022-11-29T23:03:11.017Z,95.16
2022-11-29T23:05:37.791Z,94.79
2022-11-29T23:08:04.626Z,95.19
2022-11-29T23:10:31.402Z,95.48
2022-11-29T23:12:58.049Z,94.98
